createdAt,value
2023-10-24T00:02:03.614Z,5.35
2023-10-24T00:04:30.465Z,5.18
2023-10-24T00:06:57.261Z,4.53
2023-10-24T00:09:24.019Z,4.85
2023-10-24T00:11:50.803Z,4.50
2023-10-24T00:14:17.631Z,4.50
2023-10-24T00:16:44.575Z,5.38
2023-10-24T00:19:11.940Z,5.30
2023-10-24T00:21:38.776Z,4.50
2023-10-24T00:24:05.746Z,4.70
2023-10-24T00:26:32.494Z,4.35
2023-10-24T00:28:59.127Z,3.70
2023-10-24T00:31:26.028Z,5.63
2023-10-24T00:33:52.778Z,4.25
2023-10-24T00:36:19.526Z,4.30
2023-10-24T00:38:46.236Z,4.18
2023-10-24T00:41:13.037Z,4.72
2023-10-24T00:43:39.806Z,4.28
2023-10-24T00:46:08.407Z,4.38
2023-10-24T00:48:35.931Z,4.40
2023-10-24T00:51:02.832Z,3.95
2023-10-24T00:53:30.140Z,4.35
2023-10-24T00:55:57.762Z,3.90
2023-10-24T00:58:25.049Z,4.10
2023-10-24T01:00:52.296Z,3.95
2023-10-24T01:03:19.365Z,4.45
2023-10-24T01:05:48.238Z,3.40
2023-10-24T01:08:15.080Z,3.80
2023-10-24T01:10:41.985Z,3.50
2023-10-24T01:13:09.459Z,3.22
2023-10-24T01:15:36.333Z,3.70
2023-10-24T01:18:04.473Z,4.13
2023-10-24T01:20:31.433Z,4.00
2023-10-24T01:22:58.351Z,3.75
2023-10-24T01:25:26.110Z,3.70
2023-10-24T01:27:56.314Z,3.28
2023-10-24T01:30:23.362Z,3.25
2023-10-24T01:32:50.343Z,3.47
2023-10-24T01:35:17.230Z,3.10
2023-10-24T01:37:44.072Z,3.13
2023-10-24T01:40:11.241Z,3.08
2023-10-24T01:42:38.540Z,3.47
2023-10-24T01:45:06.007Z,3.15
2023-10-24T01:47:33.038Z,2.88
2023-10-24T01:49:59.899Z,2.75
2023-10-24T01:52:26.699Z,3.20
2023-10-24T01:54:53.544Z,2.97
2023-10-24T01:57:20.344Z,3.10
2023-10-24T01:59:47.138Z,2.80
2023-10-24T02:02:13.980Z,3.05
2023-10-24T02:04:40.959Z,2.75
2023-10-24T02:07:07.990Z,2.85
2023-10-24T02:09:34.815Z,2.50
2023-10-24T02:12:02.227Z,3.10
2023-10-24T02:14:29.513Z,2.45
2023-10-24T02:16:56.770Z,3.13
2023-10-24T02:19:24.498Z,2.63
2023-10-24T02:21:51.232Z,3.05
2023-10-24T02:24:18.032Z,2.92
2023-10-24T02:26:44.991Z,2.88
2023-10-24T02:29:11.838Z,2.70
2023-10-24T02:31:38.832Z,2.83
2023-10-24T02:34:05.738Z,2.83
2023-10-24T02:36:32.433Z,3.10
2023-10-24T02:38:59.137Z,3.25
2023-10-24T02:41:26.072Z,3.40
2023-10-24T02:43:52.950Z,3.47
2023-10-24T02:46:19.721Z,3.55
2023-10-24T02:48:47.349Z,3.20
2023-10-24T02:51:14.141Z,4.30
2023-10-24T02:53:40.953Z,3.60
2023-10-24T02:56:07.850Z,3.65
2023-10-24T02:58:34.619Z,4.32
2023-10-24T03:01:05.940Z,4.30
2023-10-24T03:03:34.101Z,3.58
2023-10-24T03:06:01.260Z,4.25
2023-10-24T03:08:28.074Z,5.38
2023-10-24T03:10:54.900Z,4.25
2023-10-24T03:13:21.987Z,3.95
2023-10-24T03:15:48.988Z,4.10
2023-10-24T03:18:15.868Z,4.20
2023-10-24T03:20:42.774Z,3.35
2023-10-24T03:23:10.748Z,4.43
2023-10-24T03:25:42.784Z,4.13
2023-10-24T03:28:09.697Z,4.40
2023-10-24T03:30:36.500Z,3.50
2023-10-24T03:33:04.288Z,4.13
2023-10-24T03:35:33.889Z,3.85
2023-10-24T03:38:02.523Z,4.20
2023-10-24T03:40:29.510Z,3.42
2023-10-24T03:42:56.887Z,3.38
2023-10-24T03:45:23.946Z,3.67
2023-10-24T03:47:51.043Z,3.70
2023-10-24T03:50:17.919Z,3.63
2023-10-24T03:52:45.277Z,3.38
2023-10-24T03:55:12.917Z,3.75
2023-10-24T03:57:40.525Z,3.80
2023-10-24T04:00:11.546Z,3.40
2023-10-24T04:02:38.397Z,4.07
2023-10-24T04:05:06.310Z,3.92
2023-10-24T04:07:33.121Z,3.53
2023-10-24T04:10:00.006Z,3.45
2023-10-24T04:12:26.694Z,3.65
2023-10-24T04:14:53.602Z,2.92
2023-10-24T04:17:20.415Z,2.80
2023-10-24T04:19:47.528Z,2.67
2023-10-24T04:22:15.425Z,2.92
2023-10-24T04:24:42.420Z,3.72
2023-10-24T04:27:10.670Z,3.08
2023-10-24T04:29:37.506Z,2.80
2023-10-24T04:32:05.326Z,3.17
2023-10-24T04:34:32.258Z,3.55
2023-10-24T04:36:59.489Z,2.97
2023-10-24T04:39:26.655Z,3.08
2023-10-24T04:41:53.528Z,3.33
2023-10-24T04:44:20.670Z,3.00
2023-10-24T04:46:47.796Z,3.72
2023-10-24T04:49:17.311Z,3.08
2023-10-24T04:51:44.441Z,3.47
2023-10-24T04:54:11.393Z,3.45
2023-10-24T04:56:38.210Z,3.63
2023-10-24T04:59:05.092Z,4.03
2023-10-24T05:01:38.812Z,3.40
2023-10-24T05:04:07.405Z,2.97
2023-10-24T05:06:34.670Z,3.83
2023-10-24T05:09:01.385Z,3.92
2023-10-24T05:11:28.249Z,3.95
2023-10-24T05:13:54.959Z,4.05
2023-10-24T05:16:21.907Z,3.47
2023-10-24T05:18:48.858Z,3.33
2023-10-24T05:21:15.706Z,3.60
2023-10-24T05:23:42.548Z,3.75
2023-10-24T05:26:09.366Z,4.60
2023-10-24T05:28:36.175Z,4.32
2023-10-24T05:31:09.368Z,3.78
2023-10-24T05:33:36.936Z,3.83
2023-10-24T05:36:04.568Z,3.95
2023-10-24T05:38:31.664Z,3.78
2023-10-24T05:40:58.488Z,3.58
2023-10-24T05:43:25.354Z,3.80
2023-10-24T05:45:52.189Z,4.05
2023-10-24T05:48:19.493Z,3.65
2023-10-24T05:50:46.264Z,4.13
2023-10-24T05:53:13.080Z,3.92
2023-10-24T05:55:42.991Z,4.10
2023-10-24T05:58:09.740Z,4.78
2023-10-24T06:00:37.040Z,5.10
2023-10-24T06:03:04.119Z,4.55
2023-10-24T06:05:31.064Z,4.30
2023-10-24T06:07:57.977Z,4.20
2023-10-24T06:10:24.871Z,3.72
2023-10-24T06:12:51.654Z,4.78
2023-10-24T06:15:18.469Z,3.95
2023-10-24T06:17:45.295Z,3.40
2023-10-24T06:20:12.263Z,4.07
2023-10-24T06:22:39.119Z,3.88
2023-10-24T06:25:06.172Z,4.45
2023-10-24T06:27:32.907Z,3.47
2023-10-24T06:29:59.653Z,4.63
2023-10-24T06:32:26.494Z,3.95
2023-10-24T06:34:53.368Z,3.88
2023-10-24T06:37:20.146Z,3.90
2023-10-24T06:39:47.917Z,4.72
2023-10-24T06:42:14.766Z,4.32
2023-10-24T06:44:41.578Z,4.82
2023-10-24T06:47:08.358Z,4.10
2023-10-24T06:49:35.197Z,4.45
2023-10-24T06:52:02.033Z,4.30
2023-10-24T06:54:28.872Z,4.60
2023-10-24T06:56:55.720Z,4.30
2023-10-24T06:59:22.473Z,4.28
2023-10-24T07:01:49.530Z,5.05
2023-10-24T07:04:16.368Z,4.63
2023-10-24T07:06:44.104Z,4.53
2023-10-24T07:09:10.868Z,4.45
2023-10-24T07:11:37.658Z,4.03
2023-10-24T07:14:05.173Z,4.32
2023-10-24T07:16:31.918Z,5.03
2023-10-24T07:18:58.691Z,5.38
2023-10-24T07:21:25.444Z,5.32
2023-10-24T07:23:52.325Z,5.55
2023-10-24T07:26:20.196Z,6.10
2023-10-24T07:28:47.095Z,5.80
2023-10-24T07:31:15.176Z,6.00
2023-10-24T07:33:43.821Z,6.35
2023-10-24T07:36:10.648Z,5.53
2023-10-24T07:38:37.582Z,5.38
2023-10-24T07:41:05.231Z,5.25
2023-10-24T07:43:32.323Z,5.57
2023-10-24T07:45:59.401Z,5.20
2023-10-24T07:48:26.334Z,6.93
2023-10-24T07:50:54.069Z,9.15
2023-10-24T07:53:25.644Z,7.25
2023-10-24T07:55:53.782Z,8.30
2023-10-24T07:58:21.123Z,6.10
2023-10-24T08:00:49.136Z,5.93
2023-10-24T08:03:17.576Z,8.20
2023-10-24T08:05:45.325Z,6.13
2023-10-24T08:08:12.145Z,4.63
2023-10-24T08:10:39.620Z,5.63
2023-10-24T08:13:06.345Z,4.45
2023-10-24T08:15:33.728Z,3.78
2023-10-24T08:18:00.591Z,3.33
2023-10-24T08:20:28.197Z,3.90
2023-10-24T08:22:56.082Z,3.67
2023-10-24T08:25:23.122Z,3.65
2023-10-24T08:27:50.022Z,3.45
2023-10-24T08:30:16.970Z,3.53
2023-10-24T08:32:43.840Z,3.58
2023-10-24T08:35:10.763Z,3.05
2023-10-24T08:37:37.719Z,3.35
2023-10-24T08:40:05.274Z,3.63
2023-10-24T08:42:32.470Z,4.28
2023-10-24T08:45:01.156Z,3.75
2023-10-24T08:47:29.682Z,3.80
2023-10-24T08:49:57.937Z,3.47
2023-10-24T08:52:31.266Z,4.15
2023-10-24T08:55:02.848Z,3.90
2023-10-24T08:57:32.677Z,3.28
2023-10-24T09:00:01.704Z,3.67
2023-10-24T09:02:29.484Z,3.65
2023-10-24T09:04:56.619Z,4.05
2023-10-24T09:07:23.678Z,3.72
2023-10-24T09:09:50.972Z,4.15
2023-10-24T09:12:18.017Z,3.55
2023-10-24T09:14:54.247Z,3.70
2023-10-24T09:17:24.366Z,3.30
2023-10-24T09:19:52.124Z,3.22
2023-10-24T09:22:19.235Z,3.08
2023-10-24T09:24:51.344Z,2.40
2023-10-24T09:27:20.262Z,2.78
2023-10-24T09:29:51.135Z,3.58
2023-10-24T09:32:19.008Z,2.60
2023-10-24T09:34:47.340Z,2.60
2023-10-24T09:37:15.153Z,2.97
2023-10-24T09:40:01.452Z,2.30
2023-10-24T09:42:33.293Z,2.53
2023-10-24T09:45:08.079Z,2.65
2023-10-24T09:47:35.984Z,2.72
2023-10-24T09:50:04.558Z,2.55
2023-10-24T09:52:31.814Z,3.08
2023-10-24T09:54:59.887Z,2.85
2023-10-24T09:57:28.070Z,2.65
2023-10-24T09:59:58.063Z,2.78
2023-10-24T10:02:27.658Z,2.22
2023-10-24T10:04:54.837Z,2.25
2023-10-24T10:07:22.917Z,3.05
2023-10-24T10:10:06.694Z,3.15
2023-10-24T10:12:35.588Z,2.83
2023-10-24T10:15:27.839Z,3.17
2023-10-24T10:18:06.855Z,3.10
2023-10-24T10:20:51.849Z,2.70
2023-10-24T10:26:19.846Z,3.63
2023-10-24T10:29:11.797Z,2.42
2023-10-24T10:32:36.085Z,2.95
2023-10-24T10:34:47.535Z,2.70
2023-10-24T10:37:14.645Z,2.67
2023-10-24T10:39:41.608Z,2.80
2023-10-24T10:43:03.788Z,2.70
2023-10-24T10:45:33.703Z,2.33
2023-10-24T10:48:07.682Z,2.33
2023-10-24T10:50:37.116Z,2.15
2023-10-24T10:53:41.635Z,3.15
2023-10-24T10:56:27.279Z,2.15
2023-10-24T10:59:06.187Z,2.08
2023-10-24T11:01:52.408Z,1.95
2023-10-24T11:04:19.555Z,2.00
2023-10-24T11:07:00.447Z,2.17
2023-10-24T11:09:39.162Z,2.17
2023-10-24T11:12:26.919Z,2.58
2023-10-24T11:15:25.274Z,2.70
2023-10-24T11:17:52.764Z,3.15
2023-10-24T11:20:23.342Z,3.28
2023-10-24T11:22:51.860Z,3.50
2023-10-24T11:25:19.040Z,3.28
2023-10-24T11:27:48.096Z,3.53
2023-10-24T11:30:15.518Z,3.53
2023-10-24T11:32:42.506Z,4.40
2023-10-24T11:35:11.770Z,3.83
2023-10-24T11:37:38.679Z,3.67
2023-10-24T11:40:07.078Z,4.35
2023-10-24T11:42:34.046Z,4.38
2023-10-24T11:45:00.799Z,4.35
2023-10-24T11:47:27.660Z,4.43
2023-10-24T11:49:54.587Z,4.72
2023-10-24T11:52:21.449Z,3.75
2023-10-24T11:54:53.459Z,2.97
2023-10-24T11:57:26.614Z,3.42
2023-10-24T11:59:55.354Z,3.30
2023-10-24T12:02:22.488Z,3.05
2023-10-24T12:04:51.301Z,3.05
2023-10-24T12:07:18.316Z,3.10
2023-10-24T12:09:45.201Z,3.35
2023-10-24T12:12:13.751Z,3.70
2023-10-24T12:14:43.052Z,3.53
2023-10-24T12:17:11.056Z,3.20
2023-10-24T12:19:38.882Z,2.67
2023-10-24T12:22:05.653Z,2.35
2023-10-24T12:24:32.599Z,2.55
2023-10-24T12:26:59.351Z,2.20
2023-10-24T12:29:26.193Z,2.08
2023-10-24T12:31:53.121Z,2.33
2023-10-24T12:34:19.957Z,2.17
2023-10-24T12:36:48.348Z,2.38
2023-10-24T12:39:15.283Z,2.80
2023-10-24T12:41:42.118Z,2.55
2023-10-24T12:44:08.891Z,2.50
2023-10-24T12:46:35.912Z,2.35
2023-10-24T12:49:03.179Z,2.30
2023-10-24T12:51:30.434Z,2.08
2023-10-24T12:53:57.385Z,2.38
2023-10-24T12:56:24.051Z,2.10
2023-10-24T12:58:51.724Z,2.00
2023-10-24T13:01:19.481Z,2.60
2023-10-24T13:03:46.488Z,2.60
2023-10-24T13:06:13.232Z,2.13
2023-10-24T13:08:40.070Z,2.38
2023-10-24T13:11:06.885Z,2.60
2023-10-24T13:13:33.722Z,2.40
2023-10-24T13:16:00.545Z,2.50
2023-10-24T13:18:27.462Z,2.67
2023-10-24T13:20:54.172Z,2.75
2023-10-24T13:23:20.968Z,2.17
2023-10-24T13:25:47.946Z,2.58
2023-10-24T13:28:14.882Z,2.40
2023-10-24T13:30:47.194Z,2.63
2023-10-24T13:33:19.606Z,2.20
2023-10-24T13:38:16.458Z,2.70
2023-10-24T13:40:43.277Z,2.90
2023-10-24T13:43:09.989Z,2.28
2023-10-24T13:45:36.859Z,2.50
2023-10-24T13:48:03.981Z,2.55
2023-10-24T13:50:30.849Z,2.70
2023-10-24T13:52:58.700Z,2.90
2023-10-24T13:55:25.505Z,3.10
2023-10-24T13:57:52.558Z,2.53
2023-10-24T14:00:19.519Z,2.33
2023-10-24T14:02:46.539Z,2.42
2023-10-24T14:05:13.468Z,2.67
2023-10-24T14:07:40.376Z,2.60
2023-10-24T14:10:08.051Z,2.30
2023-10-24T14:12:35.009Z,2.72
2023-10-24T14:15:01.898Z,2.50
2023-10-24T14:17:28.696Z,2.88
2023-10-24T14:19:55.652Z,1.92
2023-10-24T14:22:22.810Z,2.65
2023-10-24T14:24:49.617Z,2.47
2023-10-24T14:27:16.510Z,2.45
2023-10-24T14:29:43.536Z,2.63
2023-10-24T14:32:10.309Z,2.45
2023-10-24T14:34:37.201Z,2.45
2023-10-24T14:37:04.842Z,2.33
2023-10-24T14:39:32.130Z,2.17
2023-10-24T14:42:01.300Z,1.95
2023-10-24T14:44:28.084Z,2.03
2023-10-24T14:46:56.029Z,1.90
2023-10-24T14:49:23.106Z,2.47
2023-10-24T14:51:49.955Z,2.35
2023-10-24T14:54:16.867Z,2.40
2023-10-24T14:56:43.830Z,2.22
2023-10-24T14:59:10.783Z,3.30
2023-10-24T15:01:37.842Z,2.80
2023-10-24T15:04:04.857Z,2.22
2023-10-24T15:06:32.187Z,2.10
2023-10-24T15:08:59.892Z,2.40
2023-10-24T15:11:26.648Z,2.65
2023-10-24T15:13:53.451Z,2.00
2023-10-24T15:16:20.221Z,2.30
2023-10-24T15:18:46.988Z,3.20
2023-10-24T15:21:13.675Z,2.90
2023-10-24T15:23:40.843Z,2.63
2023-10-24T15:26:07.674Z,2.30
2023-10-24T15:28:34.556Z,2.47
2023-10-24T15:31:01.391Z,2.33
2023-10-24T15:33:28.203Z,2.58
2023-10-24T15:35:55.641Z,2.47
2023-10-24T15:38:25.611Z,2.65
2023-10-24T15:40:52.653Z,2.50
2023-10-24T15:43:19.579Z,2.45
2023-10-24T15:46:07.547Z,5.35
2023-10-24T15:48:36.846Z,3.03
2023-10-24T15:51:04.078Z,2.80
2023-10-24T15:53:31.927Z,2.30
2023-10-24T15:56:00.124Z,2.78
2023-10-24T15:58:30.447Z,2.30
2023-10-24T16:00:57.277Z,2.50
2023-10-24T16:03:24.942Z,2.42
2023-10-24T16:05:52.595Z,2.53
2023-10-24T16:08:19.545Z,2.65
2023-10-24T16:10:46.446Z,2.90
2023-10-24T16:13:13.266Z,2.22
2023-10-24T16:15:39.932Z,2.13
2023-10-24T16:18:06.768Z,2.50
2023-10-24T16:20:33.533Z,2.95
2023-10-24T16:23:00.410Z,2.40
2023-10-24T16:25:27.723Z,2.15
2023-10-24T16:27:56.447Z,3.30
2023-10-24T16:30:23.284Z,1.95
2023-10-24T16:32:50.036Z,2.30
2023-10-24T16:35:16.933Z,2.63
2023-10-24T16:37:43.749Z,2.22
2023-10-24T16:40:11.318Z,2.35
2023-10-24T16:42:39.069Z,2.60
2023-10-24T16:45:07.375Z,2.30
2023-10-24T16:47:34.181Z,2.40
2023-10-24T16:50:01.133Z,2.45
2023-10-24T16:52:28.074Z,2.33
2023-10-24T16:54:54.917Z,2.45
2023-10-24T16:57:21.744Z,2.20
2023-10-24T16:59:48.442Z,2.42
2023-10-24T17:02:16.566Z,1.95
2023-10-24T17:04:43.598Z,2.47
2023-10-24T17:07:10.652Z,2.00
2023-10-24T17:09:40.978Z,2.60
2023-10-24T17:12:08.314Z,2.45
2023-10-24T17:14:35.073Z,2.70
2023-10-24T17:17:01.925Z,2.70
2023-10-24T17:19:28.964Z,2.38
2023-10-24T17:21:55.793Z,2.85
2023-10-24T17:24:22.469Z,2.65
2023-10-24T17:26:49.265Z,3.10
2023-10-24T17:29:16.109Z,2.40
2023-10-24T17:31:43.032Z,2.72
2023-10-24T17:34:12.772Z,2.70
2023-10-24T17:36:39.719Z,2.58
2023-10-24T17:39:07.313Z,2.55
2023-10-24T17:41:34.067Z,3.80
2023-10-24T17:44:03.938Z,3.55
2023-10-24T17:46:30.838Z,3.47
2023-10-24T17:48:57.628Z,3.13
2023-10-24T17:51:24.277Z,2.53
2023-10-24T17:53:51.165Z,3.55
2023-10-24T17:56:17.986Z,3.85
2023-10-24T17:58:44.979Z,2.70
2023-10-24T18:01:16.872Z,2.65
2023-10-24T18:03:44.010Z,2.83
2023-10-24T18:06:11.314Z,2.97
2023-10-24T18:08:40.569Z,3.22
2023-10-24T18:11:09.031Z,3.03
2023-10-24T18:13:36.023Z,3.03
2023-10-24T18:16:02.916Z,3.53
2023-10-24T18:18:30.959Z,2.83
2023-10-24T18:20:59.933Z,3.92
2023-10-24T18:23:26.912Z,3.42
2023-10-24T18:25:56.436Z,3.38
2023-10-24T18:28:23.355Z,3.55
2023-10-24T18:30:50.274Z,3.55
2023-10-24T18:33:17.040Z,3.70
2023-10-24T18:35:44.354Z,3.58
2023-10-24T18:38:11.149Z,3.55
2023-10-24T18:40:37.938Z,3.65
2023-10-24T18:43:08.929Z,3.72
2023-10-24T18:45:35.814Z,3.88
2023-10-24T18:48:02.862Z,3.45
2023-10-24T18:50:29.980Z,3.38
2023-10-24T18:52:58.823Z,3.60
2023-10-24T18:55:26.222Z,3.80
2023-10-24T18:57:53.113Z,3.60
2023-10-24T19:00:20.683Z,3.28
2023-10-24T19:05:18.907Z,3.80
2023-10-24T19:07:46.138Z,2.97
2023-10-24T19:10:13.695Z,4.03
2023-10-24T19:12:40.842Z,3.38
2023-10-24T19:15:08.657Z,3.00
2023-10-24T19:17:35.799Z,2.50
2023-10-24T19:20:02.920Z,2.90
2023-10-24T19:22:35.028Z,2.60
2023-10-24T19:25:04.733Z,2.72
2023-10-24T19:27:31.895Z,3.00
2023-10-24T19:29:58.944Z,2.95
2023-10-24T19:32:31.989Z,3.60
2023-10-24T19:34:59.794Z,2.17
2023-10-24T19:37:30.416Z,3.00
2023-10-24T19:39:57.541Z,2.88
2023-10-24T19:42:26.114Z,2.75
2023-10-24T19:44:53.324Z,3.08
2023-10-24T19:47:23.444Z,2.97
2023-10-24T19:49:51.283Z,2.83
2023-10-24T19:52:23.356Z,3.08
2023-10-24T19:54:50.658Z,2.88
2023-10-24T19:57:18.309Z,2.70
2023-10-24T19:59:45.468Z,2.63
2023-10-24T20:02:12.639Z,2.40
2023-10-24T20:04:43.853Z,2.40
2023-10-24T20:07:11.047Z,2.53
2023-10-24T20:11:07.840Z,2.58
2023-10-24T20:12:36.578Z,2.33
2023-10-24T20:15:09.069Z,3.90
2023-10-24T20:17:41.058Z,2.42
2023-10-24T20:20:10.052Z,2.35
2023-10-24T20:22:37.886Z,3.00
2023-10-24T20:25:06.229Z,2.22
2023-10-24T20:27:35.249Z,2.15
2023-10-24T20:30:02.935Z,2.58
2023-10-24T20:32:30.434Z,3.45
2023-10-24T20:34:57.166Z,2.58
2023-10-24T20:37:24.008Z,2.05
2023-10-24T20:39:50.852Z,2.22
2023-10-24T20:42:20.732Z,2.60
2023-10-24T20:44:50.442Z,2.53
2023-10-24T20:47:17.680Z,2.53
2023-10-24T20:49:45.342Z,2.53
2023-10-24T20:52:12.439Z,2.13
2023-10-24T20:54:39.427Z,2.65
2023-10-24T20:57:07.157Z,2.33
2023-10-24T20:59:34.651Z,2.60
2023-10-24T21:02:02.245Z,2.65
2023-10-24T21:04:29.316Z,2.75
2023-10-24T21:06:56.170Z,3.45
2023-10-24T21:09:23.042Z,2.35
2023-10-24T21:11:49.821Z,2.95
2023-10-24T21:14:16.696Z,2.47
2023-10-24T21:16:44.918Z,2.83
2023-10-24T21:19:11.814Z,3.38
2023-10-24T21:21:38.640Z,2.15
2023-10-24T21:24:07.076Z,2.20
2023-10-24T21:26:33.844Z,2.15
2023-10-24T21:29:00.637Z,2.53
2023-10-24T21:31:29.489Z,2.70
2023-10-24T21:33:56.322Z,3.22
2023-10-24T21:36:23.101Z,2.80
2023-10-24T21:38:49.878Z,2.50
2023-10-24T21:41:16.784Z,2.72
2023-10-24T21:43:43.620Z,2.47
2023-10-24T21:46:11.696Z,2.00
2023-10-24T21:48:38.712Z,1.98
2023-10-24T21:51:06.699Z,3.08
2023-10-24T21:53:34.819Z,2.13
2023-10-24T21:56:02.507Z,2.35
2023-10-24T21:58:29.333Z,1.88
2023-10-24T22:00:56.218Z,2.20
2023-10-24T22:03:24.163Z,2.28
2023-10-24T22:05:51.738Z,2.10
2023-10-24T22:08:18.851Z,2.35
2023-10-24T22:10:46.057Z,2.60
2023-10-24T22:13:13.244Z,2.55
2023-10-24T22:15:40.989Z,2.13
2023-10-24T22:18:07.935Z,2.25
2023-10-24T22:20:34.794Z,2.45
2023-10-24T22:23:03.389Z,2.28
2023-10-24T22:25:30.628Z,2.92
2023-10-24T22:28:05.141Z,2.65
2023-10-24T22:30:33.940Z,2.47
2023-10-24T22:33:01.240Z,2.55
2023-10-24T22:35:28.174Z,3.85
2023-10-24T22:37:55.007Z,2.15
2023-10-24T22:40:21.925Z,3.05
2023-10-24T22:42:48.876Z,3.22
2023-10-24T22:45:15.784Z,2.47
2023-10-24T22:47:42.785Z,3.30
2023-10-24T22:50:10.031Z,3.38
2023-10-24T22:52:36.927Z,2.90
2023-10-24T22:55:03.930Z,3.20
2023-10-24T22:57:30.866Z,2.88
2023-10-24T22:59:57.764Z,3.40
2023-10-24T23:02:24.610Z,3.00
2023-10-24T23:04:51.340Z,3.72
2023-10-24T23:07:18.083Z,3.28
2023-10-24T23:09:44.961Z,3.03
2023-10-24T23:12:11.820Z,2.72
2023-10-24T23:14:38.634Z,2.50
2023-10-24T23:17:06.271Z,2.20
2023-10-24T23:19:33.065Z,2.05
2023-10-24T23:21:59.988Z,2.10
2023-10-24T23:24:26.935Z,2.45
2023-10-24T23:26:55.296Z,2.08
2023-10-24T23:29:23.532Z,3.13
2023-10-24T23:31:50.431Z,2.15
2023-10-24T23:34:17.241Z,2.53
2023-10-24T23:36:46.104Z,2.00
2023-10-24T23:39:13.064Z,1.85
2023-10-24T23:41:39.834Z,2.92
2023-10-24T23:44:07.391Z,2.03
2023-10-24T23:46:34.638Z,2.47
2023-10-24T23:49:01.486Z,2.03
2023-10-24T23:51:28.441Z,2.00
2023-10-24T23:53:55.300Z,2.20
2023-10-24T23:56:22.162Z,2.05
2023-10-24T23:58:48.910Z,2.33
